Time;durP1;ratioP1;P1;durP2;ratioP2;P2;SDS_P1;SDS_P2;PMS_P1;PMS_P2;Temp;Humidity;BMP_temperature;BMP_pressure;BME280_temperature;BME280_humidity;BME280_pressure;Samples;Min_cycle;Max_cycle;Signal;HPM_P1;HPM_P2
2023/02/10 00:02:21;;;;;;;27.27;16.27;;;5.10;1.00;;;;;;5034552;28;20526;-51
2023/02/10 00:04:47;;;;;;;25.20;15.70;;;5.10;1.00;;;;;;5033012;28;20141;-49
2023/02/10 00:07:13;;;;;;;27.33;15.97;;;5.10;1.00;;;;;;5033993;28;20037;-51
2023/02/10 00:09:38;;;;;;;30.30;17.97;;;4.90;1.00;;;;;;5032744;28;20026;-48
2023/02/10 00:12:04;;;;;;;28.60;18.00;;;4.80;1.00;;;;;;5033909;28;20056;-51
2023/02/10 00:14:30;;;;;;;29.83;18.03;;;5.00;1.00;;;;;;5034126;28;20079;-49
2023/02/10 00:16:56;;;;;;;27.43;18.03;;;5.00;1.00;;;;;;5035941;28;20082;-47
2023/02/10 00:19:24;;;;;;;29.27;17.57;;;5.00;1.00;;;;;;5045749;28;20021;-47
2023/02/10 00:21:50;;;;;;;27.63;17.93;;;5.10;1.00;;;;;;5033708;28;20483;-50
2023/02/10 00:24:16;;;;;;;24.70;17.53;;;5.00;1.00;;;;;;5034130;28;20471;-49
2023/02/10 00:26:42;;;;;;;31.57;19.30;;;4.90;1.00;;;;;;5033821;28;20025;-50
2023/02/10 00:29:08;;;;;;;28.93;19.37;;;4.90;1.00;;;;;;5033822;28;20495;-52
2023/02/10 00:31:33;;;;;;;27.07;17.67;;;4.90;1.00;;;;;;5033718;28;20029;-49
2023/02/10 00:33:59;;;;;;;27.37;17.63;;;5.00;1.00;;;;;;5028503;28;20032;-48
2023/02/10 00:36:25;;;;;;;26.17;18.43;;;5.00;1.00;;;;;;5032860;28;20033;-52
2023/02/10 00:38:51;;;;;;;31.17;19.33;;;5.00;1.00;;;;;;5033663;28;20032;-48
2023/02/10 00:41:19;;;;;;;31.47;19.73;;;5.00;1.00;;;;;;5033437;28;20029;-47
2023/02/10 00:43:45;;;;;;;30.13;18.40;;;5.10;1.00;;;;;;5033855;28;20026;-48
2023/02/10 00:46:16;;;;;;;27.97;19.37;;;5.00;1.00;;;;;;5032909;28;20021;-50
2023/02/10 00:48:42;;;;;;;33.10;20.20;;;4.90;1.00;;;;;;5034119;28;20081;-47
2023/02/10 00:51:07;;;;;;;30.20;19.37;;;4.70;1.00;;;;;;5033619;28;20033;-48
2023/02/10 00:53:34;;;;;;;29.33;18.73;;;4.80;1.00;;;;;;5033552;28;20048;-51
2023/02/10 00:56:00;;;;;;;31.37;20.53;;;4.80;1.00;;;;;;5033558;28;20021;-48
2023/02/10 00:58:26;;;;;;;31.57;19.63;;;4.70;1.00;;;;;;5033562;28;20081;-48
2023/02/10 01:00:54;;;;;;;34.60;20.87;;;4.80;1.00;;;;;;5033956;28;20025;-47
2023/02/10 01:03:20;;;;;;;34.67;20.53;;;4.80;1.00;;;;;;5033589;28;20036;-51
2023/02/10 01:05:46;;;;;;;30.03;19.97;;;4.90;1.00;;;;;;5031530;28;20130;-47
2023/02/10 01:08:13;;;;;;;35.73;19.97;;;4.90;1.00;;;;;;5033623;28;20408;-47
2023/02/10 01:10:38;;;;;;;36.97;20.53;;;4.80;1.00;;;;;;5032493;28;20037;-51
2023/02/10 01:13:07;;;;;;;30.30;20.10;;;4.80;1.00;;;;;;5033150;28;20051;-47
2023/02/10 01:15:33;;;;;;;37.43;20.70;;;4.70;1.00;;;;;;5030856;28;20025;-48
2023/02/10 01:17:58;;;;;;;28.40;20.40;;;4.70;1.00;;;;;;5043211;28;20117;-52
2023/02/10 01:20:24;;;;;;;30.00;20.17;;;4.80;1.00;;;;;;5036600;28;20025;-48
2023/02/10 01:22:50;;;;;;;34.10;21.53;;;4.80;1.00;;;;;;5033285;28;20061;-51
2023/02/10 01:25:16;;;;;;;32.13;21.13;;;4.80;1.00;;;;;;5032270;28;20045;-49
2023/02/10 01:27:42;;;;;;;30.67;20.33;;;4.70;1.00;;;;;;5033048;28;20033;-49
2023/02/10 01:30:08;;;;;;;32.40;19.80;;;4.60;1.00;;;;;;5032929;28;20042;-49
2023/02/10 01:32:33;;;;;;;34.63;21.10;;;4.70;1.00;;;;;;5032565;28;20044;-47
2023/02/10 01:34:59;;;;;;;33.23;20.00;;;4.70;1.00;;;;;;5032776;28;20437;-47
2023/02/10 01:37:25;;;;;;;30.27;20.63;;;4.70;1.00;;;;;;5032052;28;20390;-47
2023/02/10 01:39:50;;;;;;;38.03;21.93;;;4.60;1.00;;;;;;5032650;28;20025;-48
2023/02/10 01:42:16;;;;;;;31.77;21.93;;;4.70;1.00;;;;;;5032085;28;20045;-50
2023/02/10 01:44:42;;;;;;;33.30;21.90;;;4.50;1.00;;;;;;5032920;28;20379;-47
2023/02/10 01:47:08;;;;;;;37.90;22.30;;;4.60;1.00;;;;;;5032509;28;20057;-50
2023/02/10 01:49:40;;;;;;;34.87;21.90;;;4.60;1.00;;;;;;5031002;28;20463;-48
2023/02/10 01:52:13;;;;;;;34.00;21.73;;;4.60;1.00;;;;;;5032588;28;20060;-47
2023/02/10 01:54:45;;;;;;;36.77;22.80;;;4.70;1.00;;;;;;5032207;28;20021;-49
2023/02/10 01:57:11;;;;;;;34.20;21.97;;;4.60;1.00;;;;;;5032544;28;20029;-49
2023/02/10 01:59:39;;;;;;;35.60;22.57;;;4.60;1.00;;;;;;5032314;28;20387;-47
2023/02/10 02:02:08;;;;;;;38.83;22.93;;;4.60;1.00;;;;;;5032332;28;20439;-47
2023/02/10 02:04:43;;;;;;;36.20;22.07;;;4.60;1.00;;;;;;5032149;28;20158;-46
2023/02/10 02:07:08;;;;;;;34.35;22.17;;;4.60;1.00;;;;;;5032199;28;20084;-48
2023/02/10 02:09:34;;;;;;;35.97;22.50;;;4.50;1.00;;;;;;5018414;28;20480;-47
2023/02/10 02:12:12;;;;;;;32.93;21.90;;;4.50;1.00;;;;;;5032641;28;20025;-47
2023/02/10 02:15:14;;;;;;;35.47;24.13;;;4.60;1.00;;;;;;5030845;28;20105;-47
2023/02/10 02:18:00;;;;;;;35.73;22.23;;;4.50;1.00;;;;;;5039825;28;20069;-48
2023/02/10 02:20:51;;;;;;;37.47;22.33;;;4.50;1.00;;;;;;5034138;28;20029;-47
2023/02/10 02:23:45;;;;;;;40.40;23.93;;;4.50;1.00;;;;;;5032045;28;20029;-47
2023/02/10 02:26:51;;;;;;;36.77;22.43;;;4.30;1.00;;;;;;5019856;28;20033;-47
2023/02/10 02:29:34;;;;;;;40.05;24.27;;;4.50;1.00;;;;;;5031734;28;20124;-47
2023/02/10 02:31:59;;;;;;;39.77;23.80;;;4.50;1.00;;;;;;5031545;28;20033;-47
2023/02/10 02:34:39;;;;;;;38.03;23.30;;;4.50;1.00;;;;;;5031748;28;20109;-50
2023/02/10 02:37:20;;;;;;;36.40;22.20;;;4.50;1.00;;;;;;5032072;28;20116;-47
2023/02/10 02:39:51;;;;;;;36.80;22.73;;;4.50;1.00;;;;;;5019718;28;20108;-48
2023/02/10 02:42:20;;;;;;;35.43;22.60;;;4.50;1.00;;;;;;5031766;28;20068;-47
2023/02/10 02:45:06;;;;;;;34.80;23.37;;;4.50;1.00;;;;;;5032007;28;20359;-48
2023/02/10 02:47:32;;;;;;;36.33;22.40;;;4.50;1.00;;;;;;5031693;28;20033;-48
2023/02/10 02:50:14;;;;;;;33.33;20.97;;;4.50;1.00;;;;;;5031856;28;20113;-47
2023/02/10 02:52:52;;;;;;;33.50;22.67;;;4.40;1.00;;;;;;5019101;28;20467;-49
2023/02/10 02:55:35;;;;;;;37.40;21.63;;;4.50;1.00;;;;;;5031908;28;20143;-49
2023/02/10 02:58:11;;;;;;;31.57;21.03;;;4.50;1.00;;;;;;5031481;28;20025;-48
2023/02/10 03:00:39;;;;;;;34.70;23.10;;;4.50;1.00;;;;;;5031629;28;20036;-48
2023/02/10 03:03:05;;;;;;;32.83;21.73;;;4.40;1.00;;;;;;5022391;28;20118;-48
2023/02/10 03:05:32;;;;;;;34.03;22.17;;;4.40;1.00;;;;;;5031190;28;20053;-49
2023/02/10 03:07:58;;;;;;;37.13;21.53;;;4.30;1.00;;;;;;5015682;28;20029;-47
2023/02/10 03:10:23;;;;;;;31.97;20.33;;;4.10;1.00;;;;;;5035545;28;20114;-49
2023/02/10 03:12:50;;;;;;;38.73;23.17;;;4.30;1.00;;;;;;5035635;28;20482;-47
2023/02/10 03:15:16;;;;;;;32.87;21.50;;;4.20;1.00;;;;;;5035414;28;20084;-47
2023/02/10 03:17:41;;;;;;;33.00;21.93;;;4.30;1.00;;;;;;5043462;28;20041;-47
2023/02/10 03:20:08;;;;;;;37.27;22.20;;;4.10;1.00;;;;;;5041699;28;20037;-47
2023/02/10 03:22:34;;;;;;;31.30;20.77;;;4.20;1.00;;;;;;5035151;28;20017;-48
2023/02/10 03:24:59;;;;;;;35.63;22.43;;;4.20;1.00;;;;;;5035348;28;20029;-51
2023/02/10 03:27:25;;;;;;;30.67;19.93;;;4.30;1.00;;;;;;5035110;28;20044;-47
2023/02/10 03:29:52;;;;;;;40.47;23.07;;;4.20;1.00;;;;;;5035130;28;20080;-47
2023/02/10 03:32:18;;;;;;;33.50;22.07;;;4.20;1.00;;;;;;5035099;28;20017;-49
2023/02/10 03:34:44;;;;;;;32.50;22.03;;;4.20;1.00;;;;;;5035053;28;20029;-49
2023/02/10 03:37:09;;;;;;;36.47;21.63;;;4.20;1.00;;;;;;5034942;28;20079;-49
2023/02/10 03:39:35;;;;;;;33.20;21.77;;;4.20;1.00;;;;;;5034753;28;20075;-48
2023/02/10 03:42:00;;;;;;;32.57;22.47;;;4.10;1.00;;;;;;5025587;28;20029;-48
2023/02/10 03:44:26;;;;;;;37.97;22.80;;;4.20;1.00;;;;;;5032878;28;20497;-47
2023/02/10 03:46:52;;;;;;;37.73;23.03;;;4.20;1.00;;;;;;5034855;28;20040;-47
2023/02/10 03:49:17;;;;;;;37.47;21.53;;;4.20;1.00;;;;;;5034640;28;20041;-47
2023/02/10 03:51:43;;;;;;;36.13;21.87;;;4.10;1.00;;;;;;5034704;28;20037;-48
2023/02/10 03:54:09;;;;;;;32.93;21.47;;;4.10;1.00;;;;;;5034687;28;20040;-47
2023/02/10 03:56:34;;;;;;;30.23;21.67;;;4.10;1.00;;;;;;5034095;28;20048;-50
2023/02/10 03:59:04;;;;;;;35.53;22.20;;;4.00;1.00;;;;;;5034785;28;20380;-48
2023/02/10 04:01:31;;;;;;;32.43;21.27;;;4.10;1.00;;;;;;5034304;28;20057;-51
2023/02/10 04:03:56;;;;;;;36.57;23.13;;;4.10;1.00;;;;;;5034118;28;20045;-47
2023/02/10 04:06:37;;;;;;;33.17;22.23;;;4.10;1.00;;;;;;5033305;28;20028;-48
2023/02/10 04:09:03;;;;;;;34.50;22.13;;;3.80;1.00;;;;;;5033185;28;20124;-48
2023/02/10 04:11:28;;;;;;;32.27;21.80;;;4.00;1.00;;;;;;5033455;28;20169;-47
2023/02/10 04:13:54;;;;;;;33.60;22.70;;;4.00;1.00;;;;;;5033096;28;20018;-47
2023/02/10 04:16:22;;;;;;;34.80;21.23;;;4.00;1.00;;;;;;5033511;28;20041;-47
2023/02/10 04:18:47;;;;;;;32.23;21.17;;;3.90;1.00;;;;;;5032831;28;20361;-48
2023/02/10 04:21:14;;;;;;;37.83;22.20;;;4.00;1.00;;;;;;5033496;28;20092;-47
2023/02/10 04:23:40;;;;;;;31.03;21.37;;;4.00;1.00;;;;;;5033324;28;20156;-49
2023/02/10 04:26:06;;;;;;;33.50;21.40;;;3.90;1.00;;;;;;5019143;28;20109;-50
2023/02/10 04:28:31;;;;;;;33.80;22.90;;;3.80;1.00;;;;;;5033048;28;20105;-48
2023/02/10 04:30:59;;;;;;;33.30;21.27;;;3.80;1.00;;;;;;5032765;28;20040;-48
2023/02/10 04:33:26;;;;;;;34.70;21.87;;;3.80;1.00;;;;;;5033145;28;20037;-48
2023/02/10 04:35:53;;;;;;;36.90;21.57;;;3.80;1.00;;;;;;5032766;28;20029;-48
2023/02/10 04:38:18;;;;;;;33.60;21.43;;;3.90;1.00;;;;;;5033012;28;20044;-52
2023/02/10 04:40:44;;;;;;;35.30;22.70;;;3.90;1.00;;;;;;5033181;28;20029;-49
2023/02/10 04:43:11;;;;;;;38.33;22.87;;;3.90;1.00;;;;;;5032889;28;20032;-47
2023/02/10 04:45:37;;;;;;;38.20;22.37;;;3.90;1.00;;;;;;5032923;28;20100;-48
2023/02/10 04:48:03;;;;;;;34.73;22.50;;;3.90;1.00;;;;;;5032762;28;20440;-50
2023/02/10 04:50:28;;;;;;;38.27;22.33;;;3.90;1.00;;;;;;5032901;28;20038;-47
2023/02/10 04:52:54;;;;;;;37.83;22.30;;;3.90;1.00;;;;;;5032941;28;20068;-48
2023/02/10 04:55:20;;;;;;;35.80;21.87;;;3.90;1.00;;;;;;5032586;28;20368;-50
2023/02/10 04:57:46;;;;;;;39.63;22.80;;;3.90;1.00;;;;;;5032525;28;20033;-50
2023/02/10 05:00:12;;;;;;;36.50;21.53;;;3.80;1.00;;;;;;5032594;28;20452;-48
2023/02/10 05:02:37;;;;;;;36.27;23.00;;;3.80;1.00;;;;;;5032407;28;20025;-49
2023/02/10 05:05:04;;;;;;;39.00;23.07;;;3.80;1.00;;;;;;4981262;28;1491022;-50
2023/02/10 05:07:30;;;;;;;38.90;22.10;;;3.80;1.00;;;;;;5033772;28;20087;-50
2023/02/10 05:09:56;;;;;;;40.23;22.30;;;3.70;1.00;;;;;;5033460;28;20037;-47
2023/02/10 05:12:22;;;;;;;34.43;21.03;;;3.80;1.00;;;;;;5033396;28;20375;-48
2023/02/10 05:14:48;;;;;;;37.00;21.53;;;3.70;1.00;;;;;;5033272;28;20026;-52
2023/02/10 05:17:13;;;;;;;38.63;21.87;;;3.70;1.00;;;;;;5033460;28;20045;-50
2023/02/10 05:19:39;;;;;;;33.67;21.33;;;3.60;1.00;;;;;;5031954;28;20082;-48
2023/02/10 05:22:04;;;;;;;31.57;21.20;;;3.60;1.00;;;;;;5033058;28;20037;-52
2023/02/10 05:24:30;;;;;;;36.37;22.37;;;3.60;1.00;;;;;;5033183;28;20033;-48
2023/02/10 05:26:56;;;;;;;36.00;22.27;;;3.70;1.00;;;;;;5023623;28;20022;-51
2023/02/10 05:29:22;;;;;;;37.40;22.67;;;3.70;1.00;;;;;;5029905;28;20550;-50
2023/02/10 05:31:47;;;;;;;39.27;22.90;;;3.70;1.00;;;;;;5032740;28;20025;-47
2023/02/10 05:34:13;;;;;;;31.77;21.17;;;3.60;1.00;;;;;;5028306;28;20044;-52
2023/02/10 05:36:38;;;;;;;34.97;21.87;;;3.60;1.00;;;;;;5032775;28;20444;-48
2023/02/10 05:41:49;;;;;;;41.70;23.83;;;3.60;1.00;;;;;;5032885;28;20040;-48
2023/02/10 05:44:14;;;;;;;36.53;20.80;;;3.60;1.00;;;;;;5032748;28;20044;-48
2023/02/10 05:46:40;;;;;;;36.87;22.97;;;3.60;1.00;;;;;;5032998;28;20387;-48
2023/02/10 05:49:06;;;;;;;38.30;21.97;;;3.60;1.00;;;;;;5032558;28;20450;-48
2023/02/10 05:51:32;;;;;;;35.23;21.57;;;3.60;1.00;;;;;;5032940;28;20029;-48
2023/02/10 05:53:57;;;;;;;36.47;21.67;;;3.60;1.00;;;;;;5032842;28;20486;-49
2023/02/10 05:56:23;;;;;;;36.83;23.00;;;3.50;1.00;;;;;;5031084;28;20501;-48
2023/02/10 05:58:49;;;;;;;35.10;21.00;;;3.50;1.00;;;;;;5032668;28;20041;-47
2023/02/10 06:01:15;;;;;;;36.87;22.83;;;3.60;1.00;;;;;;5031140;28;20573;-48
2023/02/10 06:03:40;;;;;;;37.87;22.27;;;3.50;1.00;;;;;;5024459;28;20128;-50
2023/02/10 06:06:06;;;;;;;38.10;22.50;;;3.50;1.00;;;;;;5032317;28;20116;-50
2023/02/10 06:08:32;;;;;;;35.70;22.63;;;3.50;1.00;;;;;;5032495;28;20368;-48
2023/02/10 06:10:57;;;;;;;33.10;21.63;;;3.60;1.00;;;;;;5032196;28;20034;-48
2023/02/10 06:13:23;;;;;;;37.70;23.73;;;3.60;1.00;;;;;;5032264;28;20030;-50
2023/02/10 06:15:49;;;;;;;34.37;22.50;;;3.60;1.00;;;;;;5032144;28;20360;-49
2023/02/10 06:18:14;;;;;;;39.57;22.87;;;3.50;1.00;;;;;;5032292;28;20029;-49
2023/02/10 06:20:40;;;;;;;37.37;21.27;;;3.50;1.00;;;;;;5032335;28;20047;-47
2023/02/10 06:23:05;;;;;;;34.90;21.23;;;3.50;1.00;;;;;;5032387;28;20513;-49
2023/02/10 06:25:33;;;;;;;32.93;22.00;;;3.50;1.00;;;;;;5032147;28;20463;-51
2023/02/10 06:27:58;;;;;;;39.17;23.07;;;3.50;1.00;;;;;;5032262;28;20079;-53
2023/02/10 06:30:24;;;;;;;40.60;23.67;;;3.60;1.00;;;;;;5032086;28;20045;-50
2023/02/10 06:32:50;;;;;;;38.80;24.53;;;3.40;1.00;;;;;;5032251;28;20378;-53
2023/02/10 06:35:15;;;;;;;33.07;21.30;;;3.40;1.00;;;;;;5030446;28;20031;-52
2023/02/10 06:37:42;;;;;;;34.67;21.10;;;3.40;1.00;;;;;;5032075;28;20062;-53
2023/02/10 06:40:09;;;;;;;35.40;20.53;;;3.40;1.00;;;;;;5032410;28;20417;-52
2023/02/10 06:42:34;;;;;;;36.90;22.00;;;3.40;1.00;;;;;;5031944;28;20033;-52
2023/02/10 06:45:00;;;;;;;33.30;21.43;;;3.50;1.00;;;;;;5031973;28;20029;-53
2023/02/10 06:47:26;;;;;;;34.60;22.33;;;3.20;1.00;;;;;;5032189;28;20021;-54
2023/02/10 06:49:52;;;;;;;34.67;21.60;;;3.30;1.00;;;;;;5032040;28;20029;-49
2023/02/10 06:52:18;;;;;;;37.97;23.37;;;3.40;1.00;;;;;;5030512;28;20025;-54
2023/02/10 06:54:44;;;;;;;35.67;22.30;;;3.30;1.00;;;;;;5031877;28;20029;-52
2023/02/10 06:57:09;;;;;;;38.57;23.33;;;3.20;1.00;;;;;;5028843;28;20035;-51
2023/02/10 06:59:35;;;;;;;35.17;21.77;;;3.40;1.00;;;;;;5027492;28;20097;-53
2023/02/10 07:02:01;;;;;;;33.80;22.67;;;3.40;1.00;;;;;;5026159;28;20025;-50
2023/02/10 07:04:31;;;;;;;37.77;23.50;;;3.40;1.00;;;;;;5031647;28;20041;-53
2023/02/10 07:06:57;;;;;;;36.70;21.80;;;3.50;1.00;;;;;;5031535;28;20021;-52
2023/02/10 07:09:24;;;;;;;35.07;20.73;;;3.50;1.00;;;;;;5031589;28;20069;-54
2023/02/10 07:11:50;;;;;;;35.60;22.63;;;3.50;1.00;;;;;;5031642;28;20025;-53
2023/02/10 07:14:16;;;;;;;35.87;22.17;;;3.50;1.00;;;;;;5031873;28;20375;-55
2023/02/10 07:16:42;;;;;;;40.93;23.30;;;3.50;1.00;;;;;;5031471;28;20060;-53
2023/02/10 07:19:08;;;;;;;39.27;23.00;;;3.40;1.00;;;;;;5031949;28;20073;-53
2023/02/10 07:21:34;;;;;;;36.57;22.80;;;3.40;1.00;;;;;;5031834;28;20529;-54
2023/02/10 07:24:01;;;;;;;35.93;23.37;;;3.40;1.00;;;;;;5031433;28;20387;-52
2023/02/10 07:26:27;;;;;;;37.30;22.10;;;3.50;1.00;;;;;;5031399;28;20030;-54
2023/02/10 07:28:53;;;;;;;37.40;23.13;;;3.40;1.00;;;;;;5031247;28;20137;-51
2023/02/10 07:31:19;;;;;;;43.13;21.80;;;3.50;1.00;;;;;;5031249;28;20136;-53
2023/02/10 07:33:44;;;;;;;38.23;22.93;;;3.40;1.00;;;;;;5031204;28;20033;-50
2023/02/10 07:36:10;;;;;;;34.77;23.20;;;3.40;1.00;;;;;;5031234;28;20041;-48
2023/02/10 07:38:37;;;;;;;42.63;23.90;;;3.50;1.00;;;;;;5031499;28;20069;-53
2023/02/10 07:41:04;;;;;;;40.83;23.30;;;3.20;1.00;;;;;;5031268;28;20022;-52
2023/02/10 07:43:29;;;;;;;39.80;23.70;;;3.40;1.00;;;;;;5031365;28;20022;-51
2023/02/10 07:45:55;;;;;;;41.87;23.33;;;3.50;1.00;;;;;;5031149;28;20021;-55
2023/02/10 07:48:21;;;;;;;33.77;21.87;;;3.60;1.00;;;;;;5031250;28;20467;-49
2023/02/10 07:50:47;;;;;;;34.23;22.10;;;3.50;1.00;;;;;;5031310;28;20041;-51
2023/02/10 07:53:13;;;;;;;35.80;22.83;;;3.60;1.00;;;;;;5031760;28;20028;-50
2023/02/10 07:55:39;;;;;;;41.00;23.03;;;3.60;1.00;;;;;;5034872;28;20021;-48
2023/02/10 07:58:06;;;;;;;40.37;24.17;;;3.70;1.00;;;;;;5034826;28;20237;-50
2023/02/10 08:00:32;;;;;;;39.27;23.53;;;3.60;1.00;;;;;;5034741;28;20029;-47
2023/02/10 08:02:58;;;;;;;40.50;23.47;;;3.50;1.00;;;;;;5034741;28;20029;-49
2023/02/10 08:05:23;;;;;;;37.33;23.00;;;3.50;1.00;;;;;;5020509;28;20419;-48
2023/02/10 08:07:49;;;;;;;36.90;22.90;;;3.60;1.00;;;;;;5034815;28;20025;-50
2023/02/10 08:10:14;;;;;;;40.07;22.87;;;3.70;1.00;;;;;;5034727;28;20033;-49
2023/02/10 08:12:40;;;;;;;37.37;23.30;;;3.60;1.00;;;;;;5033238;28;20021;-49
2023/02/10 08:15:07;;;;;;;34.03;22.50;;;3.60;1.00;;;;;;5033007;28;20387;-49
2023/02/10 08:17:33;;;;;;;38.60;23.33;;;3.60;1.00;;;;;;5034435;28;20036;-51
2023/02/10 08:19:59;;;;;;;35.43;22.33;;;3.70;1.00;;;;;;5034357;28;20391;-48
2023/02/10 08:22:25;;;;;;;37.70;22.97;;;3.60;1.00;;;;;;5034484;28;20025;-49
2023/02/10 08:24:50;;;;;;;36.77;22.40;;;3.70;1.00;;;;;;5032979;28;20386;-49
2023/02/10 08:27:16;;;;;;;40.23;22.70;;;3.60;1.00;;;;;;5034408;28;20033;-53
2023/02/10 08:29:42;;;;;;;41.40;22.40;;;3.80;1.00;;;;;;5034139;28;20068;-67
2023/02/10 08:32:08;;;;;;;40.00;22.30;;;3.90;1.00;;;;;;5021723;28;20124;-50
2023/02/10 08:34:39;;;;;;;38.13;22.90;;;3.90;1.00;;;;;;5034469;28;20056;-50
2023/02/10 08:37:05;;;;;;;36.43;22.63;;;4.00;1.00;;;;;;5033797;28;20029;-51
2023/02/10 08:39:31;;;;;;;36.53;22.73;;;4.00;1.00;;;;;;5034001;28;20024;-49
2023/02/10 08:41:56;;;;;;;35.40;22.83;;;4.10;1.00;;;;;;5034024;28;20013;-48
2023/02/10 08:44:22;;;;;;;39.37;23.37;;;4.10;1.00;;;;;;5033920;28;20029;-53
2023/02/10 08:46:47;;;;;;;41.63;22.97;;;4.20;1.00;;;;;;5034747;28;20022;-48
2023/02/10 08:49:13;;;;;;;36.53;22.03;;;4.30;1.00;;;;;;5035355;28;20037;-47
2023/02/10 08:51:39;;;;;;;38.23;23.83;;;4.30;1.00;;;;;;5047641;28;20059;-50
2023/02/10 08:54:06;;;;;;;35.20;21.87;;;4.40;1.00;;;;;;5047796;28;20033;-46
2023/02/10 08:56:32;;;;;;;40.03;24.30;;;4.20;1.00;;;;;;5038653;28;20057;-51
2023/02/10 08:58:57;;;;;;;42.93;24.77;;;4.30;1.00;;;;;;5045863;28;20482;-48
2023/02/10 09:01:28;;;;;;;47.70;25.40;;;4.40;1.00;;;;;;5044006;28;20029;-48
2023/02/10 09:03:54;;;;;;;40.33;24.07;;;4.40;1.00;;;;;;5032703;28;20041;-47
2023/02/10 09:06:27;;;;;;;36.20;23.37;;;4.50;1.00;;;;;;5029370;28;20097;-47
2023/02/10 09:08:54;;;;;;;47.00;24.40;;;4.50;1.00;;;;;;5020689;28;20475;-47
2023/02/10 09:11:23;;;;;;;37.50;23.00;;;4.50;1.00;;;;;;5030297;28;20072;-50
2023/02/10 09:13:52;;;;;;;34.47;23.83;;;4.60;1.00;;;;;;5033458;28;20026;-50
2023/02/10 09:16:19;;;;;;;34.10;22.83;;;4.60;1.00;;;;;;5034994;28;20032;-51
2023/02/10 09:18:44;;;;;;;40.43;22.57;;;4.60;1.00;;;;;;5033668;28;20033;-50
2023/02/10 09:21:10;;;;;;;39.13;22.30;;;4.60;1.00;;;;;;5032060;28;20036;-53
2023/02/10 09:23:37;;;;;;;32.60;21.17;;;4.60;1.00;;;;;;5032988;28;20055;-54
2023/02/10 09:26:03;;;;;;;35.10;21.53;;;4.70;1.00;;;;;;5033453;28;20068;-54
2023/02/10 09:28:28;;;;;;;35.20;21.40;;;4.80;1.00;;;;;;5033106;28;20025;-53
2023/02/10 09:30:54;;;;;;;34.73;22.63;;;4.80;1.00;;;;;;5032916;28;20547;-53
2023/02/10 09:33:21;;;;;;;33.23;20.50;;;4.80;1.00;;;;;;5033051;28;20040;-55
2023/02/10 09:35:46;;;;;;;35.63;20.97;;;4.80;1.00;;;;;;5025737;28;20071;-50
2023/02/10 09:38:13;;;;;;;31.63;19.83;;;4.90;1.00;;;;;;5032555;28;20025;-52
2023/02/10 09:41:03;;;;;;;37.27;21.63;;;4.90;1.00;;;;;;5032755;28;20041;-49
2023/02/10 09:43:47;;;;;;;37.47;20.70;;;4.90;1.00;;;;;;5032984;28;20026;-48
2023/02/10 09:46:57;;;;;;;34.90;22.07;;;4.90;1.00;;;;;;5019420;28;20018;-58
2023/02/10 09:49:42;;;;;;;31.17;20.53;;;5.00;1.00;;;;;;5013764;28;20166;-59
2023/02/10 09:52:29;;;;;;;28.63;19.73;;;5.00;1.00;;;;;;5032264;28;20112;-59
2023/02/10 09:54:55;;;;;;;32.70;21.67;;;5.00;1.00;;;;;;5030997;28;20276;-48
2023/02/10 09:57:43;;;;;;;32.17;19.73;;;5.10;1.00;;;;;;5024654;28;20038;-49
2023/02/10 10:00:19;;;;;;;33.37;20.90;;;5.20;1.00;;;;;;5027179;28;20558;-52
2023/02/10 10:02:50;;;;;;;30.57;20.07;;;5.30;1.00;;;;;;5028503;28;20026;-46
2023/02/10 10:05:43;;;;;;;33.00;21.33;;;5.20;1.00;;;;;;5032036;28;20120;-58
2023/02/10 10:08:26;;;;;;;30.83;21.60;;;5.40;1.00;;;;;;5032402;28;20483;-54
2023/02/10 10:10:56;;;;;;;32.70;21.00;;;5.40;1.00;;;;;;5032786;28;20038;-47
2023/02/10 10:13:24;;;;;;;32.90;21.37;;;5.40;1.00;;;;;;5032763;28;20036;-49
2023/02/10 10:16:12;;;;;;;29.83;19.97;;;5.50;1.00;;;;;;5031819;28;20025;-58
2023/02/10 10:18:58;;;;;;;32.17;20.90;;;5.50;1.00;;;;;;5032766;28;20129;-60
2023/02/10 10:21:39;;;;;;;31.47;22.00;;;5.60;1.00;;;;;;5033101;28;20040;-56
2023/02/10 10:24:16;;;;;;;31.10;21.93;;;5.60;1.00;;;;;;5032471;28;20017;-59
2023/02/10 10:26:55;;;;;;;28.70;18.97;;;5.70;1.00;;;;;;5032117;28;20104;-49
2023/02/10 10:29:46;;;;;;;31.33;20.00;;;5.70;1.00;;;;;;5032146;28;20022;-53
2023/02/10 10:32:14;;;;;;;31.80;19.53;;;5.70;1.00;;;;;;5018394;28;20391;-48
2023/02/10 10:34:45;;;;;;;28.33;19.30;;;5.70;1.00;;;;;;5032303;28;20021;-59
2023/02/10 10:37:19;;;;;;;30.97;19.77;;;5.70;1.00;;;;;;5031712;28;20029;-56
2023/02/10 10:39:48;;;;;;;27.80;18.87;;;5.80;1.00;;;;;;5032188;28;20376;-50
2023/02/10 10:42:27;;;;;;;28.57;19.30;;;5.80;1.00;;;;;;5031646;28;20375;-55
2023/02/10 10:45:26;;;;;;;32.07;19.83;;;5.90;1.00;;;;;;5031952;28;20033;-54
2023/02/10 10:48:04;;;;;;;27.30;18.20;;;5.90;1.00;;;;;;5031664;28;20028;-55
2023/02/10 10:50:29;;;;;;;29.43;19.03;;;6.00;1.00;;;;;;5031751;28;20459;-53
2023/02/10 10:52:57;;;;;;;30.43;19.27;;;5.90;1.00;;;;;;5031516;28;20112;-50
2023/02/10 10:55:29;;;;;;;32.30;19.77;;;5.90;1.00;;;;;;5031695;28;20112;-51
2023/02/10 10:57:56;;;;;;;28.10;18.60;;;6.00;1.00;;;;;;5031562;28;20481;-58
2023/02/10 11:00:25;;;;;;;28.33;17.93;;;6.10;1.00;;;;;;5031685;28;20021;-57
2023/02/10 11:03:00;;;;;;;28.60;17.60;;;6.10;1.00;;;;;;5031619;28;20017;-56
2023/02/10 11:05:35;;;;;;;28.05;18.88;;;6.20;1.00;;;;;;5018001;28;20503;-62
2023/02/10 11:08:01;;;;;;;28.97;18.73;;;6.20;1.00;;;;;;5031911;28;20029;-49
2023/02/10 11:10:50;;;;;;;30.20;18.07;;;6.20;1.00;;;;;;5031851;28;20382;-49
2023/02/10 11:13:26;;;;;;;25.73;17.90;;;6.30;1.00;;;;;;5031979;28;20371;-49
2023/02/10 11:16:15;;;;;;;25.77;17.60;;;6.20;1.00;;;;;;5030294;28;20022;-48
2023/02/10 11:18:55;;;;;;;26.30;17.27;;;6.20;1.00;;;;;;5031708;28;20056;-47
2023/02/10 11:21:36;;;;;;;29.17;18.40;;;6.30;1.00;;;;;;5030220;28;20479;-51
2023/02/10 11:24:03;;;;;;;26.40;17.93;;;6.30;1.00;;;;;;5031438;28;20025;-47
2023/02/10 11:26:29;;;;;;;31.90;17.87;;;6.40;1.00;;;;;;5031614;28;20032;-52
2023/02/10 11:28:55;;;;;;;28.40;18.93;;;6.40;1.00;;;;;;5025418;28;20018;-48
2023/02/10 11:31:21;;;;;;;30.67;18.73;;;6.40;1.00;;;;;;5035611;28;20045;-48
2023/02/10 11:33:57;;;;;;;30.40;18.13;;;6.50;1.00;;;;;;5035479;28;20466;-45
2023/02/10 11:36:31;;;;;;;25.20;17.07;;;6.70;1.00;;;;;;5035038;28;20022;-51
2023/02/10 11:39:03;;;;;;;31.40;18.73;;;6.60;1.00;;;;;;5034898;28;20028;-51
2023/02/10 11:41:30;;;;;;;28.77;17.40;;;6.80;1.00;;;;;;5035174;28;20033;-51
2023/02/10 11:43:55;;;;;;;27.90;17.67;;;6.80;1.00;;;;;;5024724;28;20028;-47
2023/02/10 11:46:39;;;;;;;27.97;18.00;;;6.80;1.00;;;;;;5034828;28;20033;-47
2023/02/10 11:49:17;;;;;;;25.67;17.17;;;6.80;1.00;;;;;;5033540;28;20467;-46
2023/02/10 11:51:53;;;;;;;28.73;19.90;;;6.80;1.00;;;;;;5017035;28;20061;-45
2023/02/10 11:54:19;;;;;;;26.83;17.67;;;6.80;1.00;;;;;;5034589;28;20026;-48
2023/02/10 12:00:16;;;;;;;27.27;18.33;;;6.90;1.00;;;;;;5012550;28;20088;-46
2023/02/10 12:03:00;;;;;;;27.27;18.63;;;6.90;1.00;;;;;;5033113;28;20459;-49
2023/02/10 12:05:50;;;;;;;26.80;17.00;;;7.00;1.00;;;;;;5020825;28;20403;-48
2023/02/10 12:08:54;;;;;;;25.73;16.60;;;7.00;1.00;;;;;;5034683;28;20045;-51
2023/02/10 12:11:48;;;;;;;25.53;16.90;;;7.10;1.00;;;;;;5034757;28;20044;-47
2023/02/10 12:14:40;;;;;;;29.70;18.07;;;7.10;1.00;;;;;;5026053;28;20057;-48
2023/02/10 12:17:11;;;;;;;24.83;17.03;;;7.10;1.00;;;;;;5017897;28;20084;-47
2023/02/10 12:20:11;;;;;;;34.20;18.90;;;7.20;1.00;;;;;;5034406;28;20479;-48
2023/02/10 12:22:42;;;;;;;27.90;17.20;;;7.30;1.00;;;;;;5022679;28;20120;-50
2023/02/10 12:25:14;;;;;;;25.87;17.60;;;7.30;1.00;;;;;;5034179;28;20040;-46
2023/02/10 12:28:09;;;;;;;26.63;17.03;;;7.30;1.00;;;;;;5034247;28;20033;-47
2023/02/10 12:31:16;;;;;;;25.40;16.70;;;7.30;1.00;;;;;;5014710;28;20046;-47
2023/02/10 12:34:00;;;;;;;28.47;17.93;;;7.40;1.00;;;;;;5034023;28;20464;-47
2023/02/10 12:36:34;;;;;;;25.20;15.93;;;7.40;1.00;;;;;;5033853;28;20029;-49
2023/02/10 12:39:20;;;;;;;24.63;16.75;;;7.40;1.00;;;;;;5019865;28;20026;-46
2023/02/10 12:42:25;;;;;;;26.53;16.70;;;7.60;1.00;;;;;;5033883;28;20085;-51
2023/02/10 12:45:05;;;;;;;24.60;15.40;;;7.70;1.00;;;;;;5029947;28;20034;-48
2023/02/10 12:47:48;;;;;;;24.50;16.00;;;7.70;1.00;;;;;;5034069;28;20047;-46
2023/02/10 12:50:52;;;;;;;25.47;17.40;;;7.70;1.00;;;;;;5028951;28;20507;-47
2023/02/10 12:53:24;;;;;;;23.87;16.50;;;7.70;1.00;;;;;;5017879;28;20038;-48
2023/02/10 12:55:58;;;;;;;26.53;16.87;;;7.80;1.00;;;;;;5033284;28;20029;-49
2023/02/10 12:58:27;;;;;;;25.27;16.58;;;7.80;1.00;;;;;;5033629;28;20096;-52
2023/02/10 13:01:23;;;;;;;24.63;17.50;;;7.90;1.00;;;;;;5033944;28;20053;-47
2023/02/10 13:03:52;;;;;;;29.07;16.77;;;7.90;1.00;;;;;;5033355;28;20060;-47
2023/02/10 13:06:41;;;;;;;25.97;17.60;;;8.00;1.00;;;;;;5033656;28;20025;-47
2023/02/10 13:09:45;;;;;;;23.37;16.47;;;8.00;1.00;;;;;;5033522;28;20462;-47
2023/02/10 13:12:13;;;;;;;23.60;15.67;;;8.10;1.00;;;;;;5032021;28;20029;-47